Time;durP1;ratioP1;P1;durP2;ratioP2;P2;SDS_P1;SDS_P2;PMS_P1;PMS_P2;Temp;Humidity;BMP_temperature;BMP_pressure;BME280_temperature;BME280_humidity;BME280_pressure;Samples;Min_cycle;Max_cycle;Signal;HPM_P1;HPM_P2
2022/01/24 00:00:15;;;;;;;13.82;6.28;;;;;;;20.46;13.79;99789.81;5074741;28;20119;-80
2022/01/24 00:02:42;;;;;;;14.75;6.47;;;;;;;20.06;14.19;99792.13;5074621;28;20414;-80
2022/01/24 00:05:10;;;;;;;12.48;5.90;;;;;;;19.97;14.17;99793.16;5073843;28;20032;-80
2022/01/24 00:07:36;;;;;;;13.70;5.95;;;;;;;20.40;13.90;99797.66;5075497;28;20074;-80
2022/01/24 00:10:06;;;;;;;12.90;5.72;;;;;;;20.53;13.66;99798.31;5075590;28;20024;-80
2022/01/24 00:12:46;;;;;;;9.90;5.25;;;;;;;20.77;13.32;99797.19;5072802;28;20035;-80
2022/01/24 00:18:03;;;;;;;10.75;4.15;;;;;;;20.79;13.34;99808.78;5055762;28;20037;-80
2022/01/24 00:28:27;;;;;;;17.58;5.88;;;;;;;19.60;13.95;99805.84;5064369;28;20047;-80
2022/01/24 00:30:54;;;;;;;13.70;6.53;;;;;;;19.49;13.81;99798.38;5075299;28;20036;-80
2022/01/24 00:33:20;;;;;;;13.85;5.68;;;;;;;19.38;13.99;99792.56;5074379;28;20119;-80
2022/01/24 00:35:47;;;;;;;15.48;6.15;;;;;;;19.36;14.12;99789.34;5075108;28;20059;-80
2022/01/24 00:38:14;;;;;;;17.63;6.38;;;;;;;19.29;13.92;99792.72;5074079;28;20036;-80
2022/01/24 00:40:43;;;;;;;11.35;5.65;;;;;;;19.36;13.87;99785.75;5074675;28;20025;-80
2022/01/24 00:43:27;;;;;;;14.68;5.80;;;;;;;19.23;13.67;99787.78;5074737;28;20040;-80
2022/01/24 00:53:59;;;;;;;17.88;6.78;;;;;;;18.07;14.07;99790.13;5055307;28;20048;-80
2022/01/24 00:56:25;;;;;;;18.98;8.52;;;;;;;18.03;14.61;99783.66;5054062;28;20128;-80
2022/01/24 00:58:51;;;;;;;14.88;7.53;;;;;;;17.94;14.50;99786.59;5059406;28;20393;-80
2022/01/24 01:01:17;;;;;;;14.20;7.00;;;;;;;18.33;14.11;99787.72;5054393;28;20543;-80
2022/01/24 01:03:43;;;;;;;20.83;7.75;;;;;;;18.58;13.79;99789.25;5054419;28;20112;-80
2022/01/24 01:06:10;;;;;;;18.67;7.53;;;;;;;18.44;13.90;99792.41;5054277;28;20047;-80
2022/01/24 01:19:39;;;;;;;16.25;6.53;;;;;;;18.55;13.14;99801.09;5066056;28;20060;-80
2022/01/24 01:22:06;;;;;;;14.50;6.35;;;;;;;18.58;12.91;99781.72;5053843;28;20025;-79
2022/01/24 01:24:37;;;;;;;13.93;6.63;;;;;;;18.48;13.13;99795.34;5054747;28;20029;-80
2022/01/24 01:27:09;;;;;;;13.88;6.28;;;;;;;18.40;13.03;99797.09;5053834;28;20057;-80
2022/01/24 01:29:49;;;;;;;16.55;7.38;;;;;;;18.35;13.18;99796.53;5065043;28;20373;-80
2022/01/24 01:37:56;;;;;;;15.68;7.13;;;;;;;18.69;13.37;99793.16;5053964;28;20033;-79
2022/01/24 01:52:14;;;;;;;17.23;6.53;;;;;;;18.63;13.06;99783.44;5053442;28;20100;-80
2022/01/24 01:54:18;;;;;;;16.60;6.25;;;;;;;17.73;13.36;99797.06;5053556;28;20404;-80
2022/01/24 01:56:44;;;;;;;14.23;6.82;;;;;;;17.84;13.37;99803.75;5053467;28;20037;-79
2022/01/24 01:59:11;;;;;;;18.00;7.18;;;;;;;17.80;13.53;99786.16;5053746;28;20500;-80
2022/01/24 02:01:37;;;;;;;19.02;6.88;;;;;;;17.91;13.40;99792.84;5054167;28;20120;-80
2022/01/24 02:04:05;;;;;;;18.33;7.47;;;;;;;17.72;13.44;99795.44;5053375;28;20025;-79
2022/01/24 02:06:31;;;;;;;18.13;6.60;;;;;;;17.50;13.77;99782.84;5053241;28;20111;-79
2022/01/24 02:09:08;;;;;;;20.48;6.97;;;;;;;17.64;13.54;99793.59;5053082;28;20032;-79
2022/01/24 02:11:34;;;;;;;18.88;7.43;;;;;;;17.77;13.47;99795.19;5068890;28;20024;-80
2022/01/24 02:14:05;;;;;;;22.75;7.15;;;;;;;17.61;13.58;99795.13;5069368;28;20532;-80
2022/01/24 02:16:51;;;;;;;13.77;6.63;;;;;;;17.59;13.58;99804.94;5063191;28;20405;-80
2022/01/24 02:19:28;;;;;;;19.70;7.10;;;;;;;17.44;13.94;99802.84;5063182;28;20077;-80
2022/01/24 02:24:33;;;;;;;15.63;6.57;;;;;;;17.55;13.45;99810.38;5093504;28;20064;-80
2022/01/24 02:27:00;;;;;;;14.55;5.78;;;;;;;17.64;13.24;99804.72;5096972;28;20032;-79
2022/01/24 02:30:11;;;;;;;13.68;6.15;;;;;;;17.60;13.02;99795.44;5100213;28;20103;-78
2022/01/24 02:32:19;;;;;;;13.45;5.88;;;;;;;17.44;13.33;99802.84;5089226;28;20083;-79
2022/01/24 02:34:48;;;;;;;14.40;6.72;;;;;;;17.41;13.57;99803.56;5058278;28;20025;-79
2022/01/24 02:37:17;;;;;;;19.77;7.97;;;;;;;17.29;13.73;99796.03;5060194;28;20036;-78
2022/01/24 02:39:58;;;;;;;17.02;8.50;;;;;;;17.17;13.39;99799.63;5059840;28;20028;-78
2022/01/24 02:51:21;;;;;;;18.65;7.93;;;;;;;16.92;13.94;99827.69;5063147;28;20067;-79
2022/01/24 02:53:47;;;;;;;19.02;8.80;;;;;;;16.65;13.85;99822.72;5060080;28;20108;-79
2022/01/24 02:56:13;;;;;;;19.90;9.00;;;;;;;16.28;14.08;99822.56;5059525;28;20029;-79
2022/01/24 02:58:39;;;;;;;21.35;9.27;;;;;;;16.32;14.40;99822.69;5059399;28;20028;-79
2022/01/24 03:01:07;;;;;;;21.88;9.07;;;;;;;16.39;14.22;99822.94;5059282;28;20112;-79
2022/01/24 03:03:37;;;;;;;25.95;10.60;;;;;;;16.34;14.33;99821.19;5059458;28;20029;-79
2022/01/24 03:06:05;;;;;;;19.40;8.82;;;;;;;16.40;14.51;99821.81;5059808;28;20460;-79
2022/01/24 03:08:31;;;;;;;22.88;9.85;;;;;;;16.55;14.16;99827.56;5061823;28;20024;-79
2022/01/24 03:10:59;;;;;;;26.40;10.93;;;;;;;16.34;14.29;99823.16;5058548;28;20499;-79
2022/01/24 03:15:54;;;;;;;24.65;10.32;;;;;;;16.57;14.11;99833.56;5059240;28;20060;-79
2022/01/24 03:18:21;;;;;;;28.23;10.63;;;;;;;16.74;14.14;99835.34;5058914;28;20551;-79
2022/01/24 03:20:48;;;;;;;27.20;11.05;;;;;;;16.86;13.84;99834.59;5058896;28;20103;-79
2022/01/24 03:23:17;;;;;;;24.05;9.50;;;;;;;16.79;14.13;99831.56;5062880;28;20044;-79
2022/01/24 03:25:44;;;;;;;29.80;11.05;;;;;;;16.58;14.15;99840.75;5079068;28;20040;-79
2022/01/24 03:28:11;;;;;;;31.92;10.77;;;;;;;16.14;14.33;99835.09;5078362;28;20039;-79
2022/01/24 03:30:38;;;;;;;23.42;9.75;;;;;;;16.35;14.30;99835.88;5079230;28;20548;-79
2022/01/24 03:33:06;;;;;;;24.23;9.55;;;;;;;16.72;13.97;99832.13;5080053;28;20396;-79
2022/01/24 03:35:33;;;;;;;24.48;9.85;;;;;;;16.95;13.76;99833.34;5078863;28;20040;-79
2022/01/24 03:38:01;;;;;;;28.88;11.48;;;;;;;16.93;13.51;99832.06;5077559;28;20468;-79
2022/01/24 03:40:27;;;;;;;22.30;9.48;;;;;;;16.86;13.84;99832.63;5070137;28;20033;-79
2022/01/24 03:42:53;;;;;;;26.02;10.70;;;;;;;16.80;13.95;99836.78;5055913;28;20044;-79
2022/01/24 03:45:35;;;;;;;23.80;8.57;;;;;;;16.76;13.66;99829.47;5056169;28;20128;-79
2022/01/24 03:48:09;;;;;;;23.92;10.13;;;;;;;16.91;13.57;99835.19;5055972;28;20029;-80
2022/01/24 03:50:36;;;;;;;22.25;10.32;;;;;;;16.57;13.56;99849.38;5055662;28;20068;-79
2022/01/24 03:53:04;;;;;;;28.05;11.63;;;;;;;16.71;13.49;99846.34;5055655;28;20503;-79
2022/01/24 03:55:31;;;;;;;22.75;10.63;;;;;;;16.67;13.58;99850.94;5055625;28;20037;-79
2022/01/24 03:57:57;;;;;;;33.80;11.52;;;;;;;16.75;13.23;99848.09;5056353;28;20119;-79
2022/01/24 04:00:23;;;;;;;23.85;11.25;;;;;;;16.80;13.39;99858.16;5056163;28;20051;-79
2022/01/24 04:02:49;;;;;;;28.80;11.25;;;;;;;16.77;13.46;99862.41;5054572;28;20029;-79
2022/01/24 04:05:15;;;;;;;30.48;11.77;;;;;;;16.68;13.62;99867.25;5055183;28;20500;-78
2022/01/24 04:07:42;;;;;;;26.58;11.60;;;;;;;16.71;13.46;99869.31;5055318;28;20029;-78
2022/01/24 04:10:09;;;;;;;30.23;11.20;;;;;;;16.45;13.63;99860.41;5055256;28;20430;-78
2022/01/24 04:12:38;;;;;;;29.77;12.10;;;;;;;16.39;13.61;99862.56;5055627;28;20025;-78
2022/01/24 04:15:25;;;;;;;27.45;10.68;;;;;;;16.52;13.50;99853.19;5056146;28;20032;-78
2022/01/24 04:18:09;;;;;;;23.42;10.38;;;;;;;16.56;13.19;99856.91;5060889;28;20051;-78
2022/01/24 04:23:20;;;;;;;35.72;12.52;;;;;;;16.06;13.62;99861.69;5075542;28;20490;-78
2022/01/24 04:25:46;;;;;;;28.88;12.05;;;;;;;15.86;14.13;99868.84;5075048;28;20029;-77
2022/01/24 04:28:12;;;;;;;29.88;11.38;;;;;;;16.04;13.72;99868.72;5073261;28;20477;-78
2022/01/24 04:30:39;;;;;;;23.73;11.02;;;;;;;16.17;13.61;99871.25;5063556;28;20025;-78
2022/01/24 04:33:05;;;;;;;28.02;11.50;;;;;;;16.04;13.65;99868.72;5055335;28;20029;-78
2022/01/24 04:35:31;;;;;;;32.28;11.77;;;;;;;15.78;14.10;99872.47;5055163;28;20108;-78
2022/01/24 04:37:57;;;;;;;31.63;12.18;;;;;;;15.99;13.91;99868.91;5054819;28;20500;-78
2022/01/24 04:40:25;;;;;;;30.65;11.93;;;;;;;16.17;13.91;99873.22;5054816;28;20025;-78
2022/01/24 04:43:00;;;;;;;27.08;11.95;;;;;;;16.50;13.57;99866.56;5055038;28;20051;-78
2022/01/24 04:45:56;;;;;;;27.05;11.75;;;;;;;16.47;13.51;99869.19;5054752;28;20033;-78
2022/01/24 04:51:14;;;;;;;26.25;10.43;;;;;;;15.69;13.25;99874.50;5053758;28;20516;-78
2022/01/24 04:56:07;;;;;;;24.63;10.00;;;;;;;15.77;13.85;99870.88;5054509;28;20124;-78
2022/01/24 04:58:33;;;;;;;23.38;10.45;;;;;;;15.97;13.30;99888.66;5069841;28;20086;-78
2022/01/24 05:00:59;;;;;;;29.23;13.13;;;;;;;16.03;13.53;99884.56;5074387;28;20040;-78
2022/01/24 05:03:25;;;;;;;25.80;11.55;;;;;;;15.78;13.40;99889.09;5074644;28;20032;-78
2022/01/24 05:05:52;;;;;;;31.85;11.80;;;;;;;15.53;13.86;99895.59;5070352;28;20041;-78
2022/01/24 05:08:18;;;;;;;22.92;10.15;;;;;;;15.36;14.35;99887.31;5053527;28;20396;-78
2022/01/24 05:11:01;;;;;;;29.45;11.93;;;;;;;15.18;14.52;99894.88;5054200;28;20033;-78
2022/01/24 05:23:26;;;;;;;24.65;11.15;;;;;;;15.50;13.77;99890.69;5074355;28;20487;-78
2022/01/24 05:24:27;;;;;;;30.73;12.43;;;;;;;15.15;13.93;99881.69;5053888;28;20480;-78
2022/01/24 05:26:53;;;;;;;29.35;11.73;;;;;;;14.81;13.77;99892.03;5054738;28;20090;-78
2022/01/24 05:29:19;;;;;;;27.65;11.02;;;;;;;14.56;13.99;99885.41;5058993;28;20032;-78
2022/01/24 05:31:45;;;;;;;26.92;11.18;;;;;;;14.56;14.56;99898.41;5073560;28;20112;-78
2022/01/24 05:34:11;;;;;;;27.45;10.65;;;;;;;14.72;14.59;99891.25;5073741;28;20024;-78
2022/01/24 05:36:37;;;;;;;26.58;11.32;;;;;;;14.87;14.42;99890.72;5073980;28;20468;-78
2022/01/24 05:39:04;;;;;;;31.65;10.93;;;;;;;15.05;14.46;99892.31;5072831;28;20545;-78
2022/01/24 05:41:30;;;;;;;24.02;10.07;;;;;;;15.05;14.46;99898.63;5073667;28;20028;-78
2022/01/24 05:43:56;;;;;;;31.30;10.88;;;;;;;15.07;14.88;99890.03;5072828;28;20571;-78
2022/01/24 05:46:22;;;;;;;28.15;10.88;;;;;;;15.24;14.42;99901.03;5068559;28;20083;-78
2022/01/24 05:48:48;;;;;;;29.63;11.23;;;;;;;15.33;14.04;99898.25;5066892;28;20093;-78
2022/01/24 05:51:14;;;;;;;32.33;11.48;;;;;;;15.59;13.48;99905.31;5073452;28;20032;-78
2022/01/24 05:53:41;;;;;;;25.05;10.02;;;;;;;15.59;13.53;99899.00;5073519;28;20060;-78
2022/01/24 05:56:07;;;;;;;22.98;9.20;;;;;;;15.76;13.91;99901.66;5051870;28;20033;-78
2022/01/24 05:58:33;;;;;;;25.55;9.73;;;;;;;15.95;13.66;99912.28;5066247;28;20035;-78
2022/01/24 06:00:59;;;;;;;23.55;10.32;;;;;;;15.76;13.72;99909.97;5057563;28;20025;-78
2022/01/24 06:03:27;;;;;;;24.88;9.90;;;;;;;15.77;13.72;99914.34;5073016;28;20446;-78
2022/01/24 06:05:53;;;;;;;26.13;9.80;;;;;;;15.83;13.69;99911.06;5059079;28;20124;-78
2022/01/24 06:08:19;;;;;;;30.02;9.32;;;;;;;16.15;13.08;99914.31;5053247;28;20041;-78
2022/01/24 06:10:47;;;;;;;27.35;10.65;;;;;;;15.85;13.13;99914.31;5053088;28;20025;-78
2022/01/24 06:13:13;;;;;;;28.88;11.55;;;;;;;15.59;13.29;99913.63;5053854;28;20048;-78
2022/01/24 06:15:40;;;;;;;23.92;9.82;;;;;;;15.69;13.13;99906.91;5072956;28;20119;-78
2022/01/24 06:18:06;;;;;;;30.95;11.25;;;;;;;15.88;13.26;99919.19;5070684;28;20033;-78
2022/01/24 06:20:32;;;;;;;21.15;9.52;;;;;;;16.01;12.98;99916.50;5072996;28;20067;-78
2022/01/24 06:22:58;;;;;;;26.65;9.50;;;;;;;16.01;12.90;99917.28;5068191;28;20033;-78
2022/01/24 06:25:25;;;;;;;21.00;8.18;;;;;;;16.17;13.16;99923.09;5052934;28;20480;-78
2022/01/24 06:27:52;;;;;;;22.50;8.38;;;;;;;16.01;13.05;99922.06;5051758;28;20033;-78
2022/01/24 06:30:18;;;;;;;25.65;8.82;;;;;;;15.87;13.33;99931.41;5053276;28;20031;-78
2022/01/24 06:32:44;;;;;;;20.42;8.77;;;;;;;15.92;13.21;99935.94;5052983;28;20091;-78
2022/01/24 06:35:12;;;;;;;24.42;9.48;;;;;;;16.05;12.73;99943.22;5052234;28;20476;-78
2022/01/24 06:37:39;;;;;;;21.35;8.73;;;;;;;15.86;12.74;99943.63;5052996;28;20043;-78
2022/01/24 06:40:07;;;;;;;26.27;9.90;;;;;;;15.78;12.95;99938.13;5053233;28;20025;-78
2022/01/24 06:42:33;;;;;;;22.70;8.57;;;;;;;15.52;13.12;99938.22;5053110;28;20071;-78
2022/01/24 06:44:59;;;;;;;23.20;9.00;;;;;;;15.75;13.02;99936.03;5052559;28;20036;-78
2022/01/24 06:47:26;;;;;;;27.38;10.88;;;;;;;16.06;12.72;99935.69;5058060;28;20036;-78
2022/01/24 06:49:52;;;;;;;24.08;10.00;;;;;;;16.31;12.43;99937.50;5071874;28;20399;-78
2022/01/24 06:52:20;;;;;;;28.67;11.20;;;;;;;16.47;12.44;99941.28;5070201;28;20033;-78
2022/01/24 06:54:46;;;;;;;24.17;9.63;;;;;;;16.54;11.91;99938.81;5073143;28;20036;-78
2022/01/24 06:57:14;;;;;;;23.27;9.85;;;;;;;16.44;12.16;99944.72;5072788;28;20484;-78
2022/01/24 06:59:42;;;;;;;32.88;11.15;;;;;;;16.40;12.00;99941.00;5072548;28;20031;-78
2022/01/24 07:02:10;;;;;;;30.75;11.68;;;;;;;16.19;12.19;99949.31;5072750;28;20426;-78
2022/01/24 07:04:39;;;;;;;30.60;12.10;;;;;;;16.15;12.45;99953.09;5058330;28;20392;-78
2022/01/24 07:07:05;;;;;;;31.23;12.57;;;;;;;16.23;12.28;99954.97;5052913;28;20029;-78
2022/01/24 07:09:32;;;;;;;36.70;13.50;;;;;;;16.19;12.65;99954.84;5071929;28;20032;-78
2022/01/24 07:11:58;;;;;;;26.30;12.23;;;;;;;16.22;12.60;99958.91;5072589;28;20029;-79
2022/01/24 07:14:24;;;;;;;29.90;13.35;;;;;;;16.42;12.13;99967.25;5074873;28;20024;-78
2022/01/24 07:19:32;;;;;;;58.85;20.77;;;;;;;16.71;11.48;99965.59;5078193;28;20412;-79
2022/01/24 07:22:01;;;;;;;64.57;21.42;;;;;;;16.31;11.34;99963.22;5070104;28;20072;-78
2022/01/24 07:24:28;;;;;;;44.38;17.25;;;;;;;15.79;11.70;99970.22;5056625;28;20068;-78
2022/01/24 07:26:54;;;;;;;81.10;24.40;;;;;;;15.77;12.43;99965.03;5056507;28;20376;-79
2022/01/24 07:29:20;;;;;;;65.32;22.35;;;;;;;16.05;12.16;99965.38;5056855;28;20029;-79
2022/01/24 07:31:47;;;;;;;67.93;23.13;;;;;;;16.55;11.68;99957.06;5067113;28;20067;-79
2022/01/24 07:34:14;;;;;;;68.90;26.90;;;;;;;16.43;11.84;99954.19;5056167;28;20101;-79
2022/01/24 07:36:40;;;;;;;87.35;30.45;;;;;;;16.09;12.52;99957.19;5055956;28;20029;-78
2022/01/24 07:39:06;;;;;;;55.03;19.92;;;;;;;15.84;12.63;99957.00;5066874;28;20040;-79
2022/01/24 07:41:34;;;;;;;38.55;16.75;;;;;;;15.86;13.14;99949.19;5075072;28;20081;-79
2022/01/24 07:44:00;;;;;;;41.50;16.52;;;;;;;15.58;13.74;99956.31;5075640;28;20028;-79
2022/01/24 07:46:28;;;;;;;42.30;15.70;;;;;;;15.59;14.10;99955.16;5076168;28;20420;-79
2022/01/24 07:48:54;;;;;;;38.88;15.07;;;;;;;15.94;13.83;99955.00;5057387;28;20041;-79
2022/01/24 07:51:20;;;;;;;36.03;14.65;;;;;;;15.63;14.12;99956.13;5055937;28;20040;-79
2022/01/24 07:53:47;;;;;;;47.33;16.38;;;;;;;15.41;14.51;99961.84;5055680;28;20473;-79
2022/01/24 07:56:13;;;;;;;42.47;16.67;;;;;;;15.48;14.60;99962.19;5056162;28;20029;-79
2022/01/24 07:58:42;;;;;;;39.42;15.68;;;;;;;15.99;14.16;99957.56;5054642;28;20618;-79
2022/01/24 08:01:08;;;;;;;43.85;16.00;;;;;;;15.89;14.09;99961.56;5055494;28;20399;-78
2022/01/24 08:03:34;;;;;;;45.47;17.17;;;;;;;16.37;13.99;99952.75;5072834;28;20392;-79
2022/01/24 08:06:00;;;;;;;42.63;14.73;;;;;;;16.67;13.70;99953.53;5075393;28;20503;-78
2022/01/24 08:08:26;;;;;;;36.58;14.55;;;;;;;17.15;13.32;99953.75;5075446;28;20039;-78
2022/01/24 08:10:52;;;;;;;36.25;15.43;;;;;;;17.34;13.15;99944.91;5072845;28;20533;-78
2022/01/24 08:13:18;;;;;;;41.90;16.35;;;;;;;17.32;13.16;99958.31;5055929;28;20033;-79
2022/01/24 08:15:44;;;;;;;35.17;14.65;;;;;;;17.52;13.13;99951.91;5060367;28;20033;-79
2022/01/24 08:18:11;;;;;;;33.17;14.00;;;;;;;17.74;12.92;99952.28;5074927;28;20020;-79
2022/01/24 08:20:37;;;;;;;34.97;15.13;;;;;;;17.84;12.79;99956.56;5075057;28;20048;-79
2022/01/24 08:23:05;;;;;;;31.08;13.25;;;;;;;17.83;12.84;99958.53;5075069;28;20039;-79
2022/01/24 08:25:31;;;;;;;38.60;15.65;;;;;;;17.58;13.28;99950.50;5074478;28;20040;-79
2022/01/24 08:27:57;;;;;;;35.22;13.57;;;;;;;17.90;13.20;99955.16;5075077;28;20029;-79
2022/01/24 08:30:24;;;;;;;35.53;14.68;;;;;;;18.11;12.94;99958.63;5072541;28;20055;-79
2022/01/24 08:32:50;;;;;;;37.10;14.40;;;;;;;18.46;12.61;99959.78;5074340;28;20028;-79
2022/01/24 08:35:20;;;;;;;38.42;15.85;;;;;;;18.53;12.44;99964.75;5074909;28;20035;-79
2022/01/24 08:37:47;;;;;;;37.40;14.95;;;;;;;17.67;13.00;99967.88;5074921;28;20154;-79
2022/01/24 08:40:21;;;;;;;32.50;15.10;;;;;;;17.84;13.09;99971.28;5074514;28;20029;-79
2022/01/24 08:43:35;;;;;;;35.28;13.93;;;;;;;18.03;12.97;99969.88;5075062;28;20032;-79
2022/01/24 08:45:50;;;;;;;35.58;14.13;;;;;;;18.25;13.01;99964.66;5074322;28;20075;-79
2022/01/24 08:48:19;;;;;;;34.28;14.18;;;;;;;18.41;12.81;99971.09;5067105;28;20154;-79
2022/01/24 08:50:48;;;;;;;39.47;14.57;;;;;;;17.75;13.33;99973.34;5061345;28;20037;-79
2022/01/24 08:53:14;;;;;;;38.35;13.98;;;;;;;17.93;13.42;99979.47;5054595;28;20029;-79
2022/01/24 08:55:41;;;;;;;26.73;10.98;;;;;;;17.27;13.77;99973.19;5054726;28;20468;-79
2022/01/24 08:58:11;;;;;;;43.40;15.45;;;;;;;17.54;13.62;99969.03;5054719;28;20036;-79
2022/01/24 09:00:37;;;;;;;35.10;14.73;;;;;;;18.00;13.42;99971.38;5058199;28;20500;-79
2022/01/24 09:03:03;;;;;;;37.67;14.25;;;;;;;18.20;13.31;99966.88;5073488;28;20032;-79
2022/01/24 09:05:34;;;;;;;34.17;14.55;;;;;;;18.00;13.17;99968.59;5068344;28;20041;-79
2022/01/24 09:08:01;;;;;;;33.25;14.70;;;;;;;18.37;13.46;99966.59;5054929;28;20025;-79
2022/01/24 09:10:27;;;;;;;32.92;13.13;;;;;;;18.83;13.27;99973.59;5054024;28;20051;-79
2022/01/24 09:12:53;;;;;;;37.03;13.32;;;;;;;18.83;13.04;99968.03;5054282;28;20053;-79
2022/01/24 09:15:20;;;;;;;39.30;14.73;;;;;;;19.04;13.07;99975.00;5054169;28;20112;-79
2022/01/24 09:17:47;;;;;;;33.92;12.80;;;;;;;19.56;12.92;99971.28;5054101;28;20028;-79
2022/01/24 09:20:14;;;;;;;33.78;13.48;;;;;;;19.90;12.33;99970.59;5057178;28;20059;-80
2022/01/24 09:22:40;;;;;;;37.60;14.98;;;;;;;20.00;12.48;99975.59;5072630;28;20476;-79
2022/01/24 09:25:10;;;;;;;33.20;14.30;;;;;;;20.33;12.25;99969.66;5073053;28;20028;-79
2022/01/24 09:27:37;;;;;;;36.50;13.43;;;;;;;20.56;12.13;99963.03;5074174;28;20025;-79
2022/01/24 09:30:04;;;;;;;29.42;11.95;;;;;;;20.81;12.14;99969.16;5073847;28;20032;-79
2022/01/24 09:32:30;;;;;;;35.75;12.88;;;;;;;21.03;11.97;99962.84;5073762;28;20032;-79
2022/01/24 09:34:56;;;;;;;40.97;16.33;;;;;;;21.07;11.96;99963.78;5073640;28;20472;-79
2022/01/24 09:37:22;;;;;;;39.90;17.00;;;;;;;20.99;12.04;99969.53;5067747;28;20040;-79
2022/01/24 09:39:48;;;;;;;37.17;15.82;;;;;;;21.05;12.18;99966.09;5053589;28;20036;-79
2022/01/24 09:42:15;;;;;;;38.58;15.27;;;;;;;20.83;11.77;99966.81;5054237;28;20064;-79
2022/01/24 09:44:41;;;;;;;30.42;12.93;;;;;;;20.82;11.99;99970.75;5053811;28;20020;-79
2022/01/24 09:47:08;;;;;;;32.03;12.48;;;;;;;20.94;12.10;99975.41;5053710;28;20040;-79
2022/01/24 09:49:34;;;;;;;34.28;12.95;;;;;;;21.17;11.93;99973.50;5060891;28;20040;-79
2022/01/24 09:52:00;;;;;;;35.22;13.70;;;;;;;21.43;11.86;99973.63;5073598;28;20032;-79
2022/01/24 09:54:26;;;;;;;49.88;17.30;;;;;;;21.66;12.01;99968.84;5072586;28;20024;-79
2022/01/24 09:56:52;;;;;;;91.82;29.10;;;;;;;21.83;11.60;99967.56;5060367;28;20103;-79
2022/01/24 09:59:18;;;;;;;41.00;16.05;;;;;;;21.71;11.87;99962.97;5067592;28;20037;-79
2022/01/24 10:01:44;;;;;;;30.95;12.63;;;;;;;21.69;11.42;99959.75;5085550;28;20119;-79
2022/01/24 10:04:17;;;;;;;28.30;12.10;;;;;;;21.71;12.02;99962.16;5053249;28;20542;-79
2022/01/24 10:07:04;;;;;;;27.80;12.32;;;;;;;21.06;12.18;99956.56;5053254;28;20037;-79
2022/01/24 10:09:35;;;;;;;29.17;11.68;;;;;;;21.22;12.31;99962.03;5053334;28;20033;-79
2022/01/24 10:12:08;;;;;;;;;;;;;;;21.26;11.85;99952.53;5054387;28;20033;-79
2022/01/24 10:17:24;;;;;;;22.90;8.80;;;;;;;21.51;12.38;99953.03;5053433;28;20072;-79
2022/01/24 10:19:51;;;;;;;22.55;8.98;;;;;;;21.72;11.90;99960.97;5053013;28;20033;-79
2022/01/24 10:22:23;;;;;;;23.50;10.23;;;;;;;21.81;12.20;99942.78;5051528;28;20037;-79
2022/01/24 10:24:53;;;;;;;24.02;11.70;;;;;;;21.60;11.95;99941.59;5053138;28;20056;-79
2022/01/24 10:27:28;;;;;;;23.33;9.60;;;;;;;21.39;12.39;99942.03;5053101;28;20123;-80
2022/01/24 10:30:02;;;;;;;27.73;11.82;;;;;;;21.13;12.54;99939.94;5070036;28;20504;-79
2022/01/24 10:32:48;;;;;;;22.95;10.10;;;;;;;21.18;12.53;99938.81;5062116;28;20492;-80
2022/01/24 10:35:37;;;;;;;25.33;11.15;;;;;;;21.00;12.18;99930.09;5053062;28;20111;-80
2022/01/24 10:43:20;;;;;;;24.70;11.00;;;;;;;20.18;12.70;99923.88;5053296;28;20040;-80
2022/01/24 10:45:47;;;;;;;23.58;10.80;;;;;;;19.61;13.74;99929.22;5053259;28;20033;-80
2022/01/24 10:48:14;;;;;;;22.73;10.05;;;;;;;20.19;13.31;99924.66;5055460;28;20029;-80
2022/01/24 10:50:40;;;;;;;23.55;11.02;;;;;;;20.51;12.93;99926.25;5056710;28;20086;-79
2022/01/24 10:53:14;;;;;;;29.25;11.20;;;;;;;20.58;12.84;99915.25;5055142;28;20033;-79
2022/01/24 10:55:42;;;;;;;25.60;12.80;;;;;;;20.39;12.87;99915.22;5055672;28;20021;-79
2022/01/24 10:58:09;;;;;;;27.70;12.40;;;;;;;20.04;12.96;99915.19;5056823;28;20388;-79
2022/01/24 11:00:37;;;;;;;22.38;10.80;;;;;;;20.61;13.13;99912.50;5057130;28;20071;-79
2022/01/24 11:03:06;;;;;;;26.13;11.30;;;;;;;21.05;12.94;99906.66;5057520;28;20087;-79
2022/01/24 11:05:38;;;;;;;26.25;12.18;;;;;;;21.48;12.68;99908.22;5056911;28;20052;-79
2022/01/24 11:08:09;;;;;;;24.15;10.90;;;;;;;21.79;12.02;99907.97;5056642;28;20599;-79
2022/01/24 11:10:49;;;;;;;24.50;10.30;;;;;;;21.83;12.75;99892.88;5056788;28;20033;-79
2022/01/24 11:13:21;;;;;;;20.73;9.98;;;;;;;22.42;12.18;99891.38;5057039;28;20033;-79
2022/01/24 11:15:58;;;;;;;19.95;9.25;;;;;;;22.68;11.19;99880.16;5056859;28;20036;-79
2022/01/24 11:18:25;;;;;;;17.92;9.25;;;;;;;22.21;12.17;99882.69;5056312;28;20033;-79
2022/01/24 11:21:01;;;;;;;17.20;7.18;;;;;;;22.30;11.54;99884.03;5072941;28;20051;-79
2022/01/24 11:23:28;;;;;;;19.63;8.07;;;;;;;22.72;12.25;99880.19;5074637;28;20036;-79
2022/01/24 11:25:59;;;;;;;15.60;7.78;;;;;;;22.83;12.20;99873.53;5076741;28;20029;-79
2022/01/24 11:28:26;;;;;;;17.63;8.40;;;;;;;22.88;12.04;99864.78;5076783;28;20060;-79
2022/01/24 11:31:06;;;;;;;16.05;7.28;;;;;;;22.98;11.48;99854.88;5076173;28;20365;-79
2022/01/24 11:33:40;;;;;;;15.85;7.68;;;;;;;23.11;11.46;99857.03;5076682;28;20032;-80
2022/01/24 11:36:09;;;;;;;20.60;11.18;;;;;;;22.93;11.79;99860.81;5072840;28;20032;-79
2022/01/24 11:38:42;;;;;;;17.42;8.02;;;;;;;23.19;11.99;99860.72;5056116;28;20392;-79
2022/01/24 11:41:21;;;;;;;16.27;7.10;;;;;;;23.25;11.60;99864.75;5056834;28;20075;-80
2022/01/24 11:43:55;;;;;;;17.67;6.80;;;;;;;23.25;11.59;99857.16;5056304;28;20124;-79
2022/01/24 11:46:44;;;;;;;16.95;7.43;;;;;;;22.87;11.41;99851.16;5055897;28;20120;-79
2022/01/24 11:49:13;;;;;;;14.82;7.75;;;;;;;23.05;11.06;99860.56;5063748;28;20033;-80
2022/01/24 11:51:42;;;;;;;13.63;5.88;;;;;;;22.98;11.96;99852.09;5063312;28;20036;-79
2022/01/24 11:54:31;;;;;;;15.30;7.18;;;;;;;23.48;11.35;99845.78;5065874;28;20032;-80
2022/01/24 11:57:17;;;;;;;50.25;14.77;;;;;;;23.38;11.00;99852.13;5069099;28;20025;-80
2022/01/24 11:59:45;;;;;;;18.63;7.80;;;;;;;23.00;11.86;99856.13;5054864;28;20505;-80
2022/01/24 12:02:19;;;;;;;108.28;30.95;;;;;;;23.30;10.97;99854.00;5055640;28;20025;-80
2022/01/24 12:05:08;;;;;;;19.70;7.72;;;;;;;22.98;11.20;99855.69;5055278;28;20090;-80
2022/01/24 12:07:43;;;;;;;20.90;7.82;;;;;;;22.34;11.37;99847.66;5055574;28;20041;-80
2022/01/24 12:10:26;;;;;;;22.80;8.70;;;;;;;22.77;11.92;99847.06;5058585;28;20384;-80
2022/01/24 12:12:55;;;;;;;23.00;9.15;;;;;;;22.95;11.11;99848.06;5075764;28;20041;-80
2022/01/24 12:15:37;;;;;;;29.70;10.57;;;;;;;21.90;11.32;99844.66;5074839;28;20119;-79
2022/01/24 12:18:26;;;;;;;14.65;6.32;;;;;;;21.82;12.00;99846.50;5074863;28;20036;-80
2022/01/24 12:21:01;;;;;;;19.50;6.65;;;;;;;22.71;11.84;99848.56;5075503;28;20055;-80
2022/01/24 12:23:36;;;;;;;15.48;6.38;;;;;;;22.98;10.97;99849.28;5074014;28;20033;-80
2022/01/24 12:26:08;;;;;;;13.45;6.93;;;;;;;23.06;11.57;99848.16;5075456;28;20131;-80
2022/01/24 12:28:39;;;;;;;15.05;7.00;;;;;;;23.15;11.36;99851.47;5060063;28;20032;-80
2022/01/24 12:31:15;;;;;;;13.32;6.28;;;;;;;23.49;11.76;99846.59;5055657;28;20060;-80
2022/01/24 12:34:10;;;;;;;18.60;7.70;;;;;;;23.75;11.23;99846.41;5054831;28;20489;-80
2022/01/24 12:36:39;;;;;;;17.63;7.10;;;;;;;23.85;10.82;99840.88;5051663;28;20041;-79
2022/01/24 12:39:35;;;;;;;27.05;10.15;;;;;;;23.75;10.91;99844.41;5055115;28;20419;-80
2022/01/24 12:42:10;;;;;;;41.35;14.90;;;;;;;23.96;10.98;99840.94;5065011;28;20502;-80
2022/01/24 12:47:08;;;;;;;19.52;7.82;;;;;;;23.28;10.99;99850.78;5073506;28;20044;-80
2022/01/24 12:49:35;;;;;;;24.65;10.23;;;;;;;22.66;11.71;99854.53;5074816;28;20037;-80
2022/01/24 12:52:09;;;;;;;42.95;15.20;;;;;;;23.05;11.46;99854.97;5074938;28;20064;-80
2022/01/24 12:54:39;;;;;;;56.67;20.20;;;;;;;23.44;10.95;99858.16;5075026;28;20384;-80
2022/01/24 12:57:16;;;;;;;24.65;9.60;;;;;;;23.41;11.26;99853.34;5055796;28;20159;-80
2022/01/24 13:00:01;;;;;;;19.45;8.50;;;;;;;23.40;11.26;99863.75;5054601;28;20025;-79
2022/01/24 13:02:37;;;;;;;17.58;7.07;;;;;;;23.33;11.37;99860.84;5054958;28;20044;-80